Time;durP1;ratioP1;P1;durP2;ratioP2;P2;SDS_P1;SDS_P2;PMS_P1;PMS_P2;Temp;Humidity;BMP_temperature;BMP_pressure;BME280_temperature;BME280_humidity;BME280_pressure;Samples;Min_cycle;Max_cycle;Signal;HPM_P1;HPM_P2
2023/11/15 10:33:24;;;;;;;;;10.50;8.25;;;;;;;;5106067;27;13444;-72
2023/11/15 10:35:49;;;;;;;;;6.00;6.00;;;;;;;;5108180;28;9490;-72
2023/11/15 10:38:18;;;;;;;;;9.67;8.00;;;;;;;;5107580;28;8778;-73
2023/11/15 10:40:46;;;;;;;;;10.67;6.67;;;;;;;;5107562;28;8785;-73
2023/11/15 10:43:13;;;;;;;;;10.33;7.33;;;;;;;;5108038;28;9108;-72
2023/11/15 10:45:43;;;;;;;;;10.33;7.00;;;;;;;;5108041;28;8975;-73
2023/11/15 10:48:11;;;;;;;;;9.67;8.00;;;;;;;;5115455;27;9100;-73
2023/11/15 10:50:40;;;;;;;;;11.67;7.33;;;;;;;;5128039;27;9117;-72
2023/11/15 10:53:07;;;;;;;;;13.00;9.00;;;;;;;;5128503;27;9115;-72
2023/11/15 10:55:32;;;;;;;;;9.25;8.00;;;;;;;;5128513;27;8877;-73
2023/11/15 10:58:02;;;;;;;;;8.00;7.00;;;;;;;;5127802;27;8797;-73
2023/11/15 11:00:30;;;;;;;;;8.50;7.75;;;;;;;;5128381;27;8785;-73
2023/11/15 11:02:56;;;;;;;;;11.00;8.00;;;;;;;;5128245;27;8882;-72
2023/11/15 11:05:30;;;;;;;;;8.50;6.00;;;;;;;;5127854;27;8815;-72
2023/11/15 11:08:34;;;;;;;;;8.25;6.00;;;;;;;;5126078;27;8805;-72
2023/11/15 11:11:09;;;;;;;;;10.00;7.75;;;;;;;;5044124;28;8813;-72
2023/11/15 11:13:34;;;;;;;;;6.00;6.00;;;;;;;;5044754;28;8934;-72
2023/11/15 11:16:18;;;;;;;;;11.33;7.33;;;;;;;;5044771;28;8793;-72
2023/11/15 11:19:03;;;;;;;;;7.50;5.75;;;;;;;;5044328;28;8789;-72
2023/11/15 11:21:49;;;;;;;;;7.00;6.00;;;;;;;;5044065;28;9552;-72
2023/11/15 11:24:15;;;;;;;;;8.00;8.00;;;;;;;;5044408;28;8782;-72
2023/11/15 11:26:41;;;;;;;;;8.33;7.33;;;;;;;;5044535;28;8786;-72
2023/11/15 11:29:08;;;;;;;;;9.50;6.75;;;;;;;;5027742;28;8952;-72
2023/11/15 11:31:35;;;;;;;;;9.50;7.50;;;;;;;;5027105;28;8845;-71
2023/11/15 11:34:09;;;;;;;;;9.50;7.00;;;;;;;;5027730;28;8798;-73
2023/11/15 11:36:50;;;;;;;;;11.00;8.00;;;;;;;;5044217;28;8924;-72
2023/11/15 11:39:23;;;;;;;;;9.50;7.50;;;;;;;;5044120;28;8790;-71
2023/11/15 11:41:49;;;;;;;;;8.75;8.00;;;;;;;;5087472;27;8801;-71
2023/11/15 11:44:14;;;;;;;;;8.33;5.33;;;;;;;;5116688;27;8789;-71
2023/11/15 11:46:40;;;;;;;;;12.33;9.00;;;;;;;;5103541;28;8804;-72
2023/11/15 11:49:05;;;;;;;;;8.67;7.33;;;;;;;;5095982;28;8779;-72
2023/11/15 11:51:30;;;;;;;;;9.33;6.00;;;;;;;;5092890;28;8812;-72
2023/11/15 11:53:56;;;;;;;;;7.67;6.33;;;;;;;;5091878;28;8816;-71
2023/11/15 11:56:23;;;;;;;;;7.33;6.33;;;;;;;;5091942;28;8792;-71
2023/11/15 11:58:48;;;;;;;;;9.25;5.00;;;;;;;;5092666;28;8907;-72
2023/11/15 12:01:14;;;;;;;;;6.00;5.33;;;;;;;;5092222;28;8930;-72
2023/11/15 12:03:45;;;;;;;;;8.00;6.00;;;;;;;;5097671;28;9432;-74
2023/11/15 12:06:12;;;;;;;;;8.00;6.75;;;;;;;;5112105;27;8774;-74
2023/11/15 12:08:38;;;;;;;;;8.25;5.50;;;;;;;;5093172;28;8822;-74
2023/11/15 12:11:07;;;;;;;;;9.25;5.25;;;;;;;;5081422;28;8799;-73
2023/11/15 12:13:49;;;;;;;;;10.00;8.50;;;;;;;;5068230;27;10633;-74
2023/11/15 12:16:21;;;;;;;;;16.00;12.67;;;;;;;;5076295;28;8858;-74
2023/11/15 12:18:57;;;;;;;;;6.00;5.50;;;;;;;;5025929;28;10389;-74
2023/11/15 12:21:23;;;;;;;;;8.00;6.00;;;;;;;;5047660;28;8909;-73
2023/11/15 12:23:49;;;;;;;;;9.00;6.67;;;;;;;;5052245;28;8887;-73
2023/11/15 12:26:14;;;;;;;;;7.00;5.67;;;;;;;;5046879;28;8935;-75
2023/11/15 12:28:40;;;;;;;;;10.00;10.00;;;;;;;;5032477;28;8804;-77
2023/11/15 12:31:07;;;;;;;;;11.33;6.33;;;;;;;;5032150;28;8811;-75
2023/11/15 12:33:34;;;;;;;;;8.33;8.33;;;;;;;;5032231;28;9561;-74
2023/11/15 12:36:00;;;;;;;;;7.67;6.00;;;;;;;;5041864;28;8922;-75
2023/11/15 12:38:25;;;;;;;;;9.33;7.33;;;;;;;;5052164;28;8980;-74
2023/11/15 12:41:00;;;;;;;;;9.67;7.00;;;;;;;;5052039;28;9125;-75
2023/11/15 12:43:30;;;;;;;;;13.00;9.00;;;;;;;;5050699;28;9516;-76
2023/11/15 12:46:03;;;;;;;;;6.50;5.75;;;;;;;;5051705;28;8985;-74
2023/11/15 12:48:29;;;;;;;;;6.67;6.00;;;;;;;;5053979;28;8820;-73
2023/11/15 12:51:01;;;;;;;;;8.67;8.00;;;;;;;;5051765;28;9056;-72
2023/11/15 12:53:30;;;;;;;;;6.67;6.00;;;;;;;;5051631;28;9103;-72
2023/11/15 12:55:55;;;;;;;;;8.33;6.00;;;;;;;;5050363;28;8982;-72
2023/11/15 12:58:22;;;;;;;;;7.67;6.00;;;;;;;;5051673;28;8909;-72
2023/11/15 13:00:57;;;;;;;;;7.67;6.00;;;;;;;;5050466;28;8823;-72
2023/11/15 13:03:25;;;;;;;;;6.33;6.00;;;;;;;;5051475;28;9123;-74
2023/11/15 13:05:51;;;;;;;;;7.00;6.33;;;;;;;;5051247;28;8978;-75
2023/11/15 13:08:16;;;;;;;;;7.00;5.00;;;;;;;;5051233;28;8896;-75
2023/11/15 13:10:42;;;;;;;;;6.67;5.67;;;;;;;;5051599;28;8786;-76
2023/11/15 13:13:11;;;;;;;;;6.00;4.33;;;;;;;;5051289;28;8884;-76
2023/11/15 13:15:39;;;;;;;;;8.00;6.00;;;;;;;;5050999;28;8924;-78
2023/11/15 13:18:05;;;;;;;;;7.33;6.67;;;;;;;;5051001;28;8918;-78
2023/11/15 13:20:33;;;;;;;;;7.33;7.00;;;;;;;;5049640;28;9336;-78
2023/11/15 13:22:59;;;;;;;;;5.00;2.00;;;;;;;;5021028;28;10766;-72
2023/11/15 13:25:25;;;;;;;;;7.00;2.00;;;;;;;;5057861;28;8829;-74
2023/11/15 13:27:50;;;;;;;;;3.00;2.00;;;;;;;;5069766;28;8971;-75
2023/11/15 13:30:16;;;;;;;;;5.00;3.00;;;;;;;;5069914;28;8811;-75
2023/11/15 13:32:41;;;;;;;;;3.00;2.00;;;;;;;;5070633;28;8820;-73
2023/11/15 13:35:08;;;;;;;;;7.00;4.67;;;;;;;;5069961;28;8816;-75
2023/11/15 13:37:33;;;;;;;;;4.00;3.00;;;;;;;;5070862;28;8832;-75
2023/11/15 13:40:01;;;;;;;;;7.67;3.00;;;;;;;;5070908;28;8940;-77
2023/11/15 13:42:29;;;;;;;;;4.75;4.00;;;;;;;;5070916;28;9528;-76
2023/11/15 13:44:55;;;;;;;;;6.50;3.00;;;;;;;;5069427;28;9709;-78
2023/11/15 13:47:21;;;;;;;;;6.00;6.00;;;;;;;;5069109;28;8838;-76
2023/11/15 13:49:46;;;;;;;;;7.33;3.00;;;;;;;;5070611;28;9141;-72
2023/11/15 13:52:12;;;;;;;;;6.67;6.33;;;;;;;;5070116;28;8842;-72
2023/11/15 13:54:37;;;;;;;;;8.00;5.33;;;;;;;;5070594;28;8868;-74
2023/11/15 13:57:02;;;;;;;;;9.67;5.33;;;;;;;;5070786;28;8790;-73
2023/11/15 13:59:31;;;;;;;;;11.33;6.00;;;;;;;;5070602;28;8795;-73
2023/11/15 14:01:57;;;;;;;;;6.50;5.50;;;;;;;;5070408;28;8837;-74
2023/11/15 14:04:22;;;;;;;;;8.33;6.00;;;;;;;;5070154;28;8798;-72
2023/11/15 14:06:48;;;;;;;;;5.00;5.00;;;;;;;;5070091;28;8783;-73
2023/11/15 14:09:13;;;;;;;;;8.33;7.33;;;;;;;;5070094;28;9517;-73
2023/11/15 14:11:39;;;;;;;;;7.00;7.00;;;;;;;;5052589;28;8860;-74
2023/11/15 14:14:04;;;;;;;;;8.67;6.33;;;;;;;;5050273;28;8798;-73
2023/11/15 14:16:30;;;;;;;;;8.00;7.67;;;;;;;;5050757;28;10034;-73
2023/11/15 14:18:55;;;;;;;;;7.67;6.33;;;;;;;;5049658;28;8797;-73
2023/11/15 14:21:21;;;;;;;;;12.67;7.67;;;;;;;;5048313;28;8809;-74
2023/11/15 14:23:47;;;;;;;;;8.00;6.33;;;;;;;;5049718;28;8868;-73
2023/11/15 14:26:14;;;;;;;;;9.00;7.00;;;;;;;;5049561;28;8852;-74
2023/11/15 14:28:39;;;;;;;;;7.67;5.00;;;;;;;;5051335;28;8770;-74
2023/11/15 14:31:04;;;;;;;;;7.00;7.00;;;;;;;;5048543;28;9016;-73
2023/11/15 14:33:31;;;;;;;;;6.00;5.67;;;;;;;;5048314;28;8831;-74
2023/11/15 14:35:56;;;;;;;;;11.33;8.00;;;;;;;;5063499;28;8821;-73
2023/11/15 14:38:21;;;;;;;;;9.33;7.67;;;;;;;;5049242;28;9297;-73
2023/11/15 14:40:47;;;;;;;;;10.67;8.00;;;;;;;;5050131;28;9549;-73
2023/11/15 14:43:15;;;;;;;;;7.00;5.00;;;;;;;;5049087;28;8881;-73
2023/11/15 14:45:41;;;;;;;;;10.00;6.25;;;;;;;;5065524;28;8805;-74
2023/11/15 14:48:10;;;;;;;;;9.00;8.00;;;;;;;;5056188;28;8814;-75
2023/11/15 14:50:36;;;;;;;;;9.67;7.33;;;;;;;;5070027;28;8894;-75
2023/11/15 14:53:16;;;;;;;;;7.00;6.00;;;;;;;;5070333;28;9038;-77
2023/11/15 14:55:42;;;;;;;;;9.33;8.00;;;;;;;;5069608;28;8791;-77
2023/11/15 14:58:09;;;;;;;;;10.33;7.00;;;;;;;;5070114;28;9055;-78
2023/11/15 15:00:36;;;;;;;;;8.50;7.00;;;;;;;;5071991;28;8791;-78
2023/11/15 15:03:04;;;;;;;;;9.67;7.00;;;;;;;;5069931;28;8934;-78
2023/11/15 15:05:30;;;;;;;;;11.50;6.75;;;;;;;;5069371;28;8923;-77
2023/11/15 15:07:55;;;;;;;;;6.33;6.33;;;;;;;;5069773;28;8785;-78
2023/11/15 15:10:21;;;;;;;;;12.00;9.00;;;;;;;;5069742;28;8792;-77
2023/11/15 15:12:46;;;;;;;;;12.00;8.67;;;;;;;;5068582;28;8966;-76
2023/11/15 15:15:16;;;;;;;;;8.33;8.33;;;;;;;;5068876;28;9696;-76
2023/11/15 15:17:41;;;;;;;;;7.67;7.67;;;;;;;;5069138;28;8813;-77
2023/11/15 15:20:10;;;;;;;;;13.33;9.67;;;;;;;;5072962;28;9040;-75
2023/11/15 15:22:37;;;;;;;;;14.33;8.67;;;;;;;;5073590;28;8945;-76
2023/11/15 15:25:05;;;;;;;;;9.00;9.00;;;;;;;;5073042;28;9210;-76
2023/11/15 15:27:30;;;;;;;;;8.33;6.33;;;;;;;;5073603;28;9198;-78
2023/11/15 15:29:59;;;;;;;;;9.67;8.00;;;;;;;;5074267;28;9934;-75
2023/11/15 15:32:25;;;;;;;;;8.67;7.00;;;;;;;;5071985;28;8855;-77
2023/11/15 15:34:50;;;;;;;;;8.33;6.67;;;;;;;;5072874;28;9045;-76
2023/11/15 15:37:16;;;;;;;;;6.33;6.00;;;;;;;;5071560;28;8799;-76
2023/11/15 15:39:41;;;;;;;;;9.67;9.67;;;;;;;;5073613;28;8810;-75
2023/11/15 15:42:06;;;;;;;;;8.00;8.00;;;;;;;;5072999;28;8986;-75
2023/11/15 15:44:31;;;;;;;;;12.00;10.00;;;;;;;;5072679;28;8822;-75
2023/11/15 15:46:57;;;;;;;;;9.67;7.33;;;;;;;;5073075;28;8798;-74
2023/11/15 15:49:22;;;;;;;;;14.00;11.25;;;;;;;;5062512;28;8806;-74
2023/11/15 15:51:47;;;;;;;;;15.00;10.00;;;;;;;;5061421;28;8859;-74
2023/11/15 15:54:13;;;;;;;;;11.67;8.00;;;;;;;;5053050;28;8897;-74
2023/11/15 15:56:40;;;;;;;;;12.33;9.00;;;;;;;;5066064;28;8810;-73
2023/11/15 15:59:05;;;;;;;;;12.00;12.00;;;;;;;;5072329;28;8792;-74
2023/11/15 16:01:30;;;;;;;;;9.67;9.33;;;;;;;;5072737;28;9223;-75
2023/11/15 16:03:55;;;;;;;;;10.75;8.25;;;;;;;;5071903;28;8799;-75
2023/11/15 16:06:24;;;;;;;;;15.00;11.50;;;;;;;;5071641;28;8831;-74
2023/11/15 16:08:50;;;;;;;;;12.00;12.00;;;;;;;;5071597;28;8804;-74
2023/11/15 16:11:15;;;;;;;;;15.25;13.25;;;;;;;;5072282;28;9273;-76
2023/11/15 16:13:41;;;;;;;;;20.50;15.00;;;;;;;;5072267;28;8822;-75
2023/11/15 16:16:08;;;;;;;;;24.50;18.25;;;;;;;;5072343;28;8788;-75
2023/11/15 16:18:33;;;;;;;;;16.25;15.75;;;;;;;;5072787;28;8825;-72
2023/11/15 16:20:59;;;;;;;;;12.25;11.50;;;;;;;;5072320;28;9542;-76
2023/11/15 16:23:24;;;;;;;;;19.25;14.00;;;;;;;;5072758;28;8810;-73
2023/11/15 16:25:50;;;;;;;;;15.75;14.00;;;;;;;;5072588;28;9520;-75
2023/11/15 16:28:15;;;;;;;;;15.50;12.00;;;;;;;;5072509;28;9613;-74
2023/11/15 16:30:40;;;;;;;;;15.25;12.75;;;;;;;;5072543;28;8832;-78
2023/11/15 16:33:08;;;;;;;;;15.75;13.00;;;;;;;;5072457;28;8834;-77
2023/11/15 16:35:34;;;;;;;;;16.50;14.75;;;;;;;;5072149;28;8803;-78
2023/11/15 16:38:00;;;;;;;;;6.75;6.50;;;;;;;;5072634;28;9663;-75
2023/11/15 16:40:25;;;;;;;;;13.50;11.75;;;;;;;;5072407;28;11463;-74
2023/11/15 16:42:51;;;;;;;;;16.50;13.50;;;;;;;;5072204;28;8856;-73
2023/11/15 16:45:17;;;;;;;;;16.25;13.25;;;;;;;;5072260;28;8794;-75
2023/11/15 16:47:42;;;;;;;;;16.75;13.50;;;;;;;;5071184;28;8806;-78
2023/11/15 16:50:08;;;;;;;;;14.25;13.00;;;;;;;;5070411;28;9659;-76
2023/11/15 16:52:33;;;;;;;;;12.50;12.00;;;;;;;;5071555;28;8916;-76
2023/11/15 16:54:59;;;;;;;;;13.75;13.00;;;;;;;;5071939;28;8905;-81
2023/11/15 16:57:24;;;;;;;;;12.00;12.00;;;;;;;;5070262;28;8978;-77
2023/11/15 16:59:49;;;;;;;;;13.00;12.00;;;;;;;;5070730;28;8803;-87
2023/11/15 17:02:15;;;;;;;;;13.75;11.75;;;;;;;;5070373;28;8830;-82
2023/11/15 17:04:40;;;;;;;;;13.75;13.75;;;;;;;;5070732;28;8804;-77
2023/11/15 17:07:06;;;;;;;;;14.00;14.00;;;;;;;;5071168;28;9545;-80
2023/11/15 17:09:31;;;;;;;;;16.00;13.75;;;;;;;;5070990;28;8800;-79
2023/11/15 17:11:57;;;;;;;;;18.00;16.00;;;;;;;;5071098;28;9635;-79
2023/11/15 17:14:22;;;;;;;;;17.25;12.25;;;;;;;;5069957;28;8788;-82
2023/11/15 17:16:48;;;;;;;;;15.00;12.75;;;;;;;;5068921;28;9579;-80
2023/11/15 17:19:19;;;;;;;;;13.00;11.00;;;;;;;;5069193;28;8816;-78
2023/11/15 17:21:44;;;;;;;;;12.00;11.00;;;;;;;;5071130;28;9503;-80
2023/11/15 17:24:10;;;;;;;;;19.00;14.50;;;;;;;;5070956;28;9417;-81
